createdAt,value
2023-01-21T00:01:04.654Z,102433.84
2023-01-21T00:03:31.375Z,102438.28
2023-01-21T00:06:00.659Z,102448.78
2023-01-21T00:08:27.390Z,102454.59
2023-01-21T00:10:54.366Z,102455.38
2023-01-21T00:13:20.964Z,102459.63
2023-01-21T00:15:47.453Z,102453.81
2023-01-21T00:18:15.090Z,102457.41
2023-01-21T00:20:41.514Z,102469.91
2023-01-21T00:23:07.972Z,102470.47
2023-01-21T00:25:34.413Z,102472.16
2023-01-21T00:28:00.872Z,102479.03
2023-01-21T00:30:27.232Z,102475.56
2023-01-21T00:32:53.662Z,102483.53
2023-01-21T00:35:20.059Z,102490.19
2023-01-21T00:37:46.600Z,102498.13
2023-01-21T00:40:13.646Z,102502.41
2023-01-21T00:42:40.134Z,102504.22
2023-01-21T00:45:07.313Z,102509.09
2023-01-21T00:47:33.756Z,102508.03
2023-01-21T00:50:00.158Z,102514.66
2023-01-21T00:52:26.591Z,102510.84
2023-01-21T00:54:52.992Z,102509.09
2023-01-21T00:57:19.444Z,102517.47
2023-01-21T00:59:45.950Z,102517.56
2023-01-21T01:02:12.372Z,102525.06
2023-01-21T01:04:38.913Z,102527.19
2023-01-21T01:07:05.479Z,102530.31
2023-01-21T01:09:31.913Z,102531.47
2023-01-21T01:11:58.480Z,102532.75
2023-01-21T01:14:25.085Z,102546.63
2023-01-21T01:16:51.572Z,102547.25
2023-01-21T01:19:18.214Z,102554.25
2023-01-21T01:21:44.729Z,102560.50
2023-01-21T01:24:11.162Z,102560.97
2023-01-21T01:26:37.656Z,102561.44
2023-01-21T01:29:05.106Z,102571.59
2023-01-21T01:31:31.605Z,102573.53
2023-01-21T01:33:58.115Z,102578.53
2023-01-21T01:36:24.593Z,102582.50
2023-01-21T01:38:52.134Z,102585.78
2023-01-21T01:41:27.511Z,102582.94
2023-01-21T01:44:06.674Z,102591.47
2023-01-21T01:46:35.580Z,102595.84
2023-01-21T01:49:12.857Z,102602.56
2023-01-21T01:51:47.664Z,102602.75
2023-01-21T01:54:19.385Z,102596.94
2023-01-21T01:56:47.721Z,102609.38
2023-01-21T01:59:15.094Z,102601.97
2023-01-21T02:01:41.767Z,102608.97
2023-01-21T02:04:10.458Z,102604.13
2023-01-21T02:06:37.674Z,102605.44
2023-01-21T02:09:04.197Z,102606.38
2023-01-21T02:11:30.778Z,102612.22
2023-01-21T02:13:58.923Z,102609.00
2023-01-21T02:16:53.381Z,102611.03
2023-01-21T02:19:38.673Z,102611.09
2023-01-21T02:22:26.334Z,102615.91
2023-01-21T02:25:24.479Z,102612.69
2023-01-21T02:28:13.359Z,102622.44
2023-01-21T02:31:03.754Z,102620.25
2023-01-21T02:33:42.513Z,102619.06
2023-01-21T02:36:17.737Z,102614.03
2023-01-21T02:39:27.964Z,102622.91
2023-01-21T02:42:03.236Z,102629.50
2023-01-21T02:44:46.974Z,102629.41
2023-01-21T02:47:26.985Z,102632.22
2023-01-21T02:50:01.442Z,102629.22
2023-01-21T02:52:28.638Z,102641.50
2023-01-21T02:54:59.880Z,102635.19
2023-01-21T02:57:36.021Z,102641.09
2023-01-21T03:00:06.858Z,102640.34
2023-01-21T03:02:36.145Z,102643.28
2023-01-21T03:05:21.432Z,102644.41
2023-01-21T03:08:14.077Z,102640.09
2023-01-21T03:10:43.396Z,102640.47
2023-01-21T03:13:41.412Z,102648.84
2023-01-21T03:16:28.166Z,102641.84
2023-01-21T03:18:55.713Z,102638.31
2023-01-21T03:21:25.773Z,102646.31
2023-01-21T03:23:53.571Z,102633.19
2023-01-21T03:26:32.663Z,102636.28
2023-01-21T03:29:03.483Z,102633.72
2023-01-21T03:31:32.667Z,102630.31
2023-01-21T03:34:02.373Z,102637.06
2023-01-21T03:36:41.558Z,102649.13
2023-01-21T03:39:17.348Z,102634.91
2023-01-21T03:41:43.814Z,102647.25
2023-01-21T03:44:10.697Z,102632.88
2023-01-21T03:46:46.168Z,102645.03
2023-01-21T03:49:45.689Z,102636.66
2023-01-21T03:52:13.739Z,102641.75
2023-01-21T03:54:40.778Z,102632.22
2023-01-21T03:57:07.194Z,102647.00
2023-01-21T03:59:33.575Z,102635.53
2023-01-21T04:02:00.045Z,102646.22
2023-01-21T04:04:26.503Z,102643.25
2023-01-21T04:06:52.879Z,102634.91
2023-01-21T04:09:19.397Z,102657.22
2023-01-21T04:11:45.781Z,102647.72
2023-01-21T04:14:12.266Z,102647.72
2023-01-21T04:16:38.713Z,102651.88
2023-01-21T04:19:05.310Z,102651.78
2023-01-21T04:21:31.772Z,102670.88
2023-01-21T04:23:58.197Z,102664.47
2023-01-21T04:26:24.728Z,102663.41
2023-01-21T04:28:51.195Z,102659.81
2023-01-21T04:31:17.684Z,102662.94
2023-01-21T04:33:44.858Z,102667.59
2023-01-21T04:36:11.305Z,102656.13
2023-01-21T04:38:37.907Z,102663.91
2023-01-21T04:41:04.339Z,102668.94
2023-01-21T04:43:30.793Z,102669.44
2023-01-21T04:45:57.196Z,102667.38
2023-01-21T04:48:23.645Z,102673.34
2023-01-21T04:50:50.084Z,102680.09
2023-01-21T04:53:16.553Z,102677.31
2023-01-21T04:55:42.980Z,102692.22
2023-01-21T04:58:09.443Z,102691.34
2023-01-21T05:00:35.942Z,102681.66
2023-01-21T05:03:02.483Z,102692.16
2023-01-21T05:05:28.894Z,102700.94
2023-01-21T05:07:55.338Z,102696.41
2023-01-21T05:10:21.888Z,102707.34
2023-01-21T05:12:48.615Z,102709.50
2023-01-21T05:15:15.465Z,102717.06
2023-01-21T05:17:42.035Z,102726.00
2023-01-21T05:20:09.257Z,102719.59
2023-01-21T05:22:35.662Z,102732.09
2023-01-21T05:25:02.098Z,102741.72
2023-01-21T05:27:28.670Z,102744.88
2023-01-21T05:29:57.125Z,102743.63
2023-01-21T05:32:23.570Z,102755.81
2023-01-21T05:34:50.044Z,102747.03
2023-01-21T05:37:16.480Z,102758.75
2023-01-21T05:39:43.715Z,102759.09
2023-01-21T05:42:10.169Z,102760.16
2023-01-21T05:44:36.571Z,102760.69
2023-01-21T05:47:03.170Z,102767.88
2023-01-21T05:49:29.604Z,102772.16
2023-01-21T05:51:56.035Z,102773.16
2023-01-21T05:54:22.524Z,102771.00
2023-01-21T05:56:48.914Z,102781.16
2023-01-21T05:59:15.349Z,102774.91
2023-01-21T06:01:42.553Z,102783.44
2023-01-21T06:04:09.040Z,102784.63
2023-01-21T06:06:35.471Z,102799.63
2023-01-21T06:09:02.032Z,102790.28
2023-01-21T06:11:28.412Z,102793.50
2023-01-21T06:13:55.098Z,102797.47
2023-01-21T06:16:21.515Z,102802.56
2023-01-21T06:18:47.915Z,102798.25
2023-01-21T06:21:14.339Z,102795.41
2023-01-21T06:23:40.959Z,102792.63
2023-01-21T06:26:07.340Z,102796.13
2023-01-21T06:28:34.477Z,102793.19
2023-01-21T06:31:00.967Z,102793.41
2023-01-21T06:33:27.464Z,102804.22
2023-01-21T06:35:54.039Z,102798.19
2023-01-21T06:38:20.500Z,102806.06
2023-01-21T06:40:46.926Z,102809.09
2023-01-21T06:43:13.424Z,102815.34
2023-01-21T06:45:39.846Z,102810.50
2023-01-21T06:48:06.416Z,102819.50
2023-01-21T06:50:32.865Z,102811.50
2023-01-21T06:52:59.293Z,102821.03
2023-01-21T06:55:25.758Z,102823.66
2023-01-21T06:57:52.330Z,102830.19
2023-01-21T07:00:19.416Z,102834.88
2023-01-21T07:02:46.170Z,102834.56
2023-01-21T07:05:15.001Z,102837.41
2023-01-21T07:07:41.785Z,102845.00
2023-01-21T07:10:09.140Z,102848.44
2023-01-21T07:12:35.615Z,102852.88
2023-01-21T07:15:02.043Z,102855.25
2023-01-21T07:17:28.453Z,102863.34
2023-01-21T07:19:55.017Z,102862.25
2023-01-21T07:22:21.413Z,102865.47
2023-01-21T07:24:48.091Z,102878.03
2023-01-21T07:27:14.635Z,102871.03
2023-01-21T07:29:41.071Z,102872.69
2023-01-21T07:32:07.465Z,102869.34
2023-01-21T07:34:33.970Z,102870.94
2023-01-21T07:37:00.372Z,102864.50
2023-01-21T07:39:26.921Z,102877.25
2023-01-21T07:41:53.565Z,102883.19
2023-01-21T07:44:19.971Z,102876.88
2023-01-21T07:46:46.388Z,102885.31
2023-01-21T07:49:17.168Z,102884.53
2023-01-21T07:51:47.594Z,102891.59
2023-01-21T07:54:14.721Z,102899.75
2023-01-21T07:56:42.298Z,102912.44
2023-01-21T07:59:10.139Z,102904.34
2023-01-21T08:01:37.220Z,102909.88
2023-01-21T08:04:03.775Z,102916.91
2023-01-21T08:06:30.530Z,102920.53
2023-01-21T08:08:56.966Z,102919.03
2023-01-21T08:11:23.372Z,102932.88
2023-01-21T08:13:50.576Z,102939.69
2023-01-21T08:16:17.168Z,102934.59
2023-01-21T08:18:44.391Z,102938.28
2023-01-21T08:21:10.807Z,102938.91
2023-01-21T08:23:37.462Z,102939.88
2023-01-21T08:26:05.632Z,102951.94
2023-01-21T08:28:32.751Z,102943.66
2023-01-21T08:31:07.194Z,102949.59
2023-01-21T08:33:33.967Z,102949.28
2023-01-21T08:36:06.245Z,102959.13
2023-01-21T08:38:34.490Z,102964.84
2023-01-21T08:41:01.006Z,102967.09
2023-01-21T08:43:27.554Z,102970.63
2023-01-21T08:45:58.650Z,102970.03
2023-01-21T08:48:25.237Z,102972.09
2023-01-21T08:50:51.694Z,102979.84
2023-01-21T08:53:18.246Z,102982.66
2023-01-21T08:55:44.900Z,102982.66
2023-01-21T08:58:11.997Z,102985.41
2023-01-21T09:00:39.057Z,102980.72
2023-01-21T09:03:05.653Z,102988.38
2023-01-21T09:05:32.069Z,102990.88
2023-01-21T09:07:58.574Z,102986.97
2023-01-21T09:10:43.991Z,102993.19
2023-01-21T09:13:10.609Z,102983.69
2023-01-21T09:15:38.915Z,102998.88
2023-01-21T09:18:05.419Z,102993.50
2023-01-21T09:20:31.860Z,102998.75
2023-01-21T09:22:58.916Z,102997.94
2023-01-21T09:25:25.687Z,102995.00
2023-01-21T09:27:52.342Z,102999.97
2023-01-21T09:30:19.073Z,103005.88
2023-01-21T09:32:45.440Z,103010.06
2023-01-21T09:35:11.850Z,103013.69
2023-01-21T09:37:38.481Z,103012.16
2023-01-21T09:40:05.367Z,103026.19
2023-01-21T09:42:32.620Z,103038.75
2023-01-21T09:45:00.152Z,103041.53
2023-01-21T09:47:29.605Z,103048.13
2023-01-21T09:50:01.844Z,103040.31
2023-01-21T09:52:35.839Z,103056.72
2023-01-21T09:55:03.104Z,103056.59
2023-01-21T09:57:45.090Z,103055.94
2023-01-21T10:00:35.191Z,103053.63
2023-01-21T10:03:11.039Z,103058.97
2023-01-21T10:05:52.682Z,103055.56
2023-01-21T10:08:43.625Z,103062.75
2023-01-21T10:11:46.089Z,103069.13
2023-01-21T10:14:41.158Z,103060.81
2023-01-21T10:17:25.705Z,103063.41
2023-01-21T10:20:12.249Z,103062.03
2023-01-21T10:22:42.861Z,103065.56
2023-01-21T10:25:20.182Z,103064.47
2023-01-21T10:27:46.668Z,103055.66
2023-01-21T10:30:26.241Z,103060.19
2023-01-21T10:32:54.788Z,103052.94
2023-01-21T10:35:31.877Z,103051.44
2023-01-21T10:38:09.778Z,103052.63
2023-01-21T10:40:45.362Z,103049.44
2023-01-21T10:43:27.426Z,103056.69
2023-01-21T10:46:22.708Z,103066.16
2023-01-21T10:49:02.180Z,103084.41
2023-01-21T10:51:38.425Z,103085.03
2023-01-21T10:54:26.076Z,103083.38
2023-01-21T10:57:06.827Z,103090.06
2023-01-21T10:59:35.926Z,103085.69
2023-01-21T11:02:08.573Z,103094.38
2023-01-21T11:04:36.743Z,103081.22
2023-01-21T11:07:05.091Z,103081.56
2023-01-21T11:09:33.776Z,103079.81
2023-01-21T11:12:00.945Z,103089.56
2023-01-21T11:14:27.916Z,103081.03
2023-01-21T11:16:54.720Z,103080.81
2023-01-21T11:19:26.644Z,103077.88
2023-01-21T11:22:19.759Z,103067.34
2023-01-21T11:24:48.454Z,103076.13
2023-01-21T11:27:23.039Z,103073.59
2023-01-21T11:29:50.310Z,103067.84
2023-01-21T11:32:26.840Z,103067.59
2023-01-21T11:35:01.433Z,103060.00
2023-01-21T11:37:29.382Z,103071.84
2023-01-21T11:40:00.324Z,103070.22
2023-01-21T11:42:27.107Z,103065.63
2023-01-21T11:44:56.542Z,103067.59
2023-01-21T11:47:49.696Z,103069.78
2023-01-21T11:50:26.395Z,103062.69
2023-01-21T11:53:14.270Z,103057.81
2023-01-21T11:55:50.582Z,103052.38
2023-01-21T11:58:20.070Z,103063.66
2023-01-21T12:00:48.426Z,103052.72
2023-01-21T12:03:20.658Z,103070.16
2023-01-21T12:05:52.129Z,103063.94
2023-01-21T12:08:37.829Z,103058.69
2023-01-21T12:11:06.972Z,103060.84
2023-01-21T12:14:07.937Z,103057.06
2023-01-21T12:16:36.346Z,103055.78
2023-01-21T12:19:07.562Z,103050.50
2023-01-21T12:22:03.393Z,103054.28
2023-01-21T12:24:35.802Z,103055.75
2023-01-21T12:27:28.038Z,103053.84
2023-01-21T12:30:03.479Z,103056.00
2023-01-21T12:32:34.677Z,103045.44
2023-01-21T12:35:26.977Z,103061.66
2023-01-21T12:38:05.276Z,103047.97
2023-01-21T12:40:34.559Z,103039.16
2023-01-21T12:43:07.333Z,103052.00
2023-01-21T12:45:38.211Z,103043.47
2023-01-21T12:48:28.910Z,103051.59
2023-01-21T12:51:05.329Z,103056.91
2023-01-21T12:53:51.422Z,103057.28
2023-01-21T12:56:35.333Z,103069.19
2023-01-21T12:59:14.396Z,103063.31
2023-01-21T13:02:06.247Z,103065.03
2023-01-21T13:04:54.007Z,103069.50
2023-01-21T13:07:45.326Z,103068.00
2023-01-21T13:10:17.332Z,103076.19
2023-01-21T13:12:47.463Z,103069.19
2023-01-21T13:15:18.253Z,103072.09
2023-01-21T13:17:57.503Z,103077.75
2023-01-21T13:20:24.337Z,103075.22
2023-01-21T13:23:14.967Z,103078.97
2023-01-21T13:25:46.518Z,103077.69
2023-01-21T13:28:34.760Z,103081.22
2023-01-21T13:31:38.721Z,103074.41
2023-01-21T13:34:15.882Z,103082.00
2023-01-21T13:36:57.898Z,103088.53
2023-01-21T13:39:34.154Z,103075.44
2023-01-21T13:42:29.874Z,103075.63
2023-01-21T13:45:05.366Z,103081.88
2023-01-21T13:48:12.507Z,103081.50
2023-01-21T13:51:01.017Z,103081.16
2023-01-21T13:53:50.259Z,103079.50
2023-01-21T13:56:35.829Z,103081.47
2023-01-21T13:59:09.362Z,103081.81
2023-01-21T14:02:00.713Z,103086.47
2023-01-21T14:04:36.770Z,103091.72
2023-01-21T14:07:09.234Z,103095.72
2023-01-21T14:09:42.864Z,103091.72
2023-01-21T14:12:20.149Z,103101.56
2023-01-21T14:15:01.742Z,103104.47
2023-01-21T14:17:41.250Z,103104.31
2023-01-21T14:20:26.891Z,103113.28
2023-01-21T14:22:56.405Z,103105.31
2023-01-21T14:25:40.236Z,103104.69
2023-01-21T14:28:12.182Z,103119.28
2023-01-21T14:30:47.286Z,103099.09
2023-01-21T14:33:18.241Z,103102.47
2023-01-21T14:36:06.530Z,103098.59
2023-01-21T14:38:48.143Z,103094.88
2023-01-21T14:41:14.616Z,103096.41
2023-01-21T14:43:41.093Z,103097.97
2023-01-21T14:46:28.881Z,103099.81
2023-01-21T14:49:07.666Z,103093.66
2023-01-21T14:51:41.575Z,103101.94
2023-01-21T14:54:14.132Z,103111.06
2023-01-21T14:56:40.611Z,103105.34
2023-01-21T14:59:23.246Z,103094.25
2023-01-21T15:02:01.518Z,103093.38
2023-01-21T15:04:30.050Z,103102.63
2023-01-21T15:06:59.072Z,103097.13
2023-01-21T15:09:34.889Z,103094.81
2023-01-21T15:12:33.845Z,103106.88
2023-01-21T15:17:53.394Z,103104.94
2023-01-21T15:20:51.960Z,103114.13
2023-01-21T15:23:29.418Z,103102.53
2023-01-21T15:26:04.002Z,103105.97
2023-01-21T15:28:30.927Z,103112.00
2023-01-21T15:31:03.469Z,103107.31
2023-01-21T15:33:30.548Z,103106.09
2023-01-21T15:35:58.280Z,103104.81
2023-01-21T15:38:24.935Z,103099.13
2023-01-21T15:40:53.344Z,103098.44
2023-01-21T15:43:43.602Z,103106.19
2023-01-21T15:46:19.617Z,103108.44
2023-01-21T15:49:25.111Z,103112.47
2023-01-21T15:52:12.422Z,103113.25
2023-01-21T15:54:53.613Z,103121.41
2023-01-21T15:58:00.033Z,103116.53
2023-01-21T16:00:32.894Z,103118.69
2023-01-21T16:03:04.965Z,103122.97
2023-01-21T16:05:41.165Z,103116.84
2023-01-21T16:08:17.829Z,103114.66
2023-01-21T16:11:02.882Z,103119.63
2023-01-21T16:13:42.910Z,103117.41
2023-01-21T16:16:33.759Z,103110.84
2023-01-21T16:19:06.807Z,103118.47
2023-01-21T16:21:35.229Z,103117.41
2023-01-21T16:24:06.026Z,103118.41
2023-01-21T16:27:07.982Z,103114.59
2023-01-21T16:29:38.129Z,103111.25
2023-01-21T16:32:04.722Z,103103.50
2023-01-21T16:34:31.205Z,103104.63
2023-01-21T16:36:58.256Z,103107.88
2023-01-21T16:39:24.745Z,103107.78
2023-01-21T16:42:00.986Z,103102.38
2023-01-21T16:44:27.818Z,103099.78
2023-01-21T16:46:54.501Z,103101.75
2023-01-21T16:49:20.967Z,103104.97
2023-01-21T16:51:54.816Z,103108.59
2023-01-21T16:54:24.707Z,103109.38
2023-01-21T16:56:59.550Z,103104.63
2023-01-21T16:59:28.824Z,103110.28
2023-01-21T17:01:56.230Z,103098.66
2023-01-21T17:04:22.799Z,103101.06
2023-01-21T17:06:59.308Z,103101.63
2023-01-21T17:09:35.776Z,103100.53
2023-01-21T17:12:08.457Z,103106.63
2023-01-21T17:14:35.444Z,103095.94
2023-01-21T17:17:05.504Z,103097.00
2023-01-21T17:19:35.696Z,103095.31
2023-01-21T17:22:12.540Z,103100.75
2023-01-21T17:24:44.064Z,103094.16
2023-01-21T17:27:14.375Z,103091.81
2023-01-21T17:29:43.072Z,103081.97
2023-01-21T17:32:22.840Z,103099.97
2023-01-21T17:35:07.355Z,103096.91
2023-01-21T17:37:52.645Z,103096.66
2023-01-21T17:40:29.756Z,103092.97
2023-01-21T17:42:57.012Z,103092.97
2023-01-21T17:45:32.623Z,103096.44
2023-01-21T17:48:09.433Z,103084.94
2023-01-21T17:50:36.826Z,103099.94
2023-01-21T17:53:05.161Z,103103.34
2023-01-21T17:55:36.014Z,103113.44
2023-01-21T17:58:05.615Z,103108.50
2023-01-21T18:00:36.081Z,103106.53
2023-01-21T18:03:03.902Z,103113.56
2023-01-21T18:05:30.563Z,103104.00
2023-01-21T18:07:57.064Z,103102.47
2023-01-21T18:10:26.320Z,103096.44
2023-01-21T18:12:54.487Z,103109.63
2023-01-21T18:15:21.241Z,103094.16
2023-01-21T18:17:51.469Z,103098.91
2023-01-21T18:20:20.411Z,103102.25
2023-01-21T18:22:48.332Z,103105.03
2023-01-21T18:25:16.018Z,103098.13
2023-01-21T18:27:46.794Z,103094.47
2023-01-21T18:30:19.530Z,103092.41
2023-01-21T18:32:47.019Z,103100.63
2023-01-21T18:35:19.389Z,103091.19
2023-01-21T18:37:46.270Z,103085.88
2023-01-21T18:40:17.604Z,103096.59
2023-01-21T18:42:52.283Z,103095.69
2023-01-21T18:45:21.213Z,103093.19
2023-01-21T18:47:49.127Z,103097.44
2023-01-21T18:50:19.273Z,103099.00
2023-01-21T18:52:45.808Z,103095.81
2023-01-21T18:55:13.535Z,103116.06
2023-01-21T18:57:42.033Z,103098.38
2023-01-21T19:00:20.403Z,103108.53
2023-01-21T19:02:47.386Z,103102.59
2023-01-21T19:05:14.077Z,103102.19
2023-01-21T19:07:41.252Z,103117.41
2023-01-21T19:10:12.823Z,103107.34
2023-01-21T19:12:40.133Z,103106.97
2023-01-21T19:15:08.847Z,103103.91
2023-01-21T19:17:35.436Z,103112.59
2023-01-21T19:20:02.097Z,103115.84
2023-01-21T19:22:28.916Z,103103.63
2023-01-21T19:24:55.522Z,103112.38
2023-01-21T19:27:28.796Z,103127.50
2023-01-21T19:29:55.554Z,103116.06
2023-01-21T19:32:22.151Z,103125.66
2023-01-21T19:34:48.607Z,103121.56
2023-01-21T19:37:21.502Z,103114.16
2023-01-21T19:39:47.967Z,103118.28
2023-01-21T19:42:16.186Z,103111.03
2023-01-21T19:44:43.025Z,103111.53
2023-01-21T19:47:18.162Z,103097.94
2023-01-21T19:49:45.504Z,103090.56
2023-01-21T19:52:14.092Z,103098.53
2023-01-21T19:54:40.629Z,103109.03
2023-01-21T19:57:14.764Z,103092.69
2023-01-21T19:59:42.434Z,103093.66
2023-01-21T20:02:12.316Z,103104.78
2023-01-21T20:04:39.360Z,103106.81
2023-01-21T20:07:05.960Z,103109.88
2023-01-21T20:09:32.826Z,103116.28
2023-01-21T20:12:00.251Z,103109.88
2023-01-21T20:14:28.682Z,103115.22
2023-01-21T20:16:56.317Z,103133.19
2023-01-21T20:19:22.977Z,103134.28
2023-01-21T20:22:01.103Z,103124.28
2023-01-21T20:24:30.557Z,103125.75
2023-01-21T20:26:57.948Z,103127.72
2023-01-21T20:29:27.186Z,103118.91
2023-01-21T20:31:54.590Z,103130.84
2023-01-21T20:34:21.138Z,103135.19
2023-01-21T20:36:49.647Z,103135.19
2023-01-21T20:39:16.231Z,103131.56
2023-01-21T20:41:43.567Z,103124.22
2023-01-21T20:44:10.484Z,103124.19
2023-01-21T20:46:37.088Z,103118.63
2023-01-21T20:49:03.564Z,103118.41
2023-01-21T20:51:30.247Z,103117.84
2023-01-21T20:53:56.762Z,103127.06
2023-01-21T20:56:31.188Z,103116.28
2023-01-21T20:58:58.230Z,103115.91
2023-01-21T21:01:25.957Z,103110.47
2023-01-21T21:03:52.600Z,103119.41
2023-01-21T21:06:21.528Z,103131.22
2023-01-21T21:08:49.174Z,103130.47
2023-01-21T21:11:16.448Z,103118.81
2023-01-21T21:13:43.201Z,103123.44
2023-01-21T21:16:27.774Z,103124.50
2023-01-21T21:18:56.172Z,103125.59
2023-01-21T21:21:24.010Z,103125.06
2023-01-21T21:23:53.567Z,103117.81
2023-01-21T21:26:23.610Z,103110.53
2023-01-21T21:28:54.638Z,103111.53
2023-01-21T21:31:21.660Z,103108.41
2023-01-21T21:33:48.166Z,103110.09
2023-01-21T21:36:20.097Z,103117.13
2023-01-21T21:38:48.968Z,103115.34
2023-01-21T21:41:36.316Z,103119.53
2023-01-21T21:44:04.772Z,103115.28
2023-01-21T21:46:49.784Z,103119.28
2023-01-21T21:49:17.043Z,103115.03
2023-01-21T21:51:45.556Z,103109.25
2023-01-21T21:54:13.681Z,103113.72
2023-01-21T21:56:40.270Z,103116.03
2023-01-21T21:59:06.980Z,103109.53
2023-01-21T22:01:34.942Z,103126.78
2023-01-21T22:04:03.031Z,103116.91
2023-01-21T22:06:29.653Z,103129.00
2023-01-21T22:08:57.378Z,103133.78
2023-01-21T22:11:24.296Z,103129.47
2023-01-21T22:13:51.527Z,103132.50
2023-01-21T22:16:27.858Z,103127.31
2023-01-21T22:18:55.362Z,103120.44
2023-01-21T22:21:24.947Z,103124.13
2023-01-21T22:23:53.042Z,103121.72
2023-01-21T22:26:21.876Z,103122.38
2023-01-21T22:28:48.679Z,103130.50
2023-01-21T22:31:25.761Z,103124.22
2023-01-21T22:33:52.984Z,103129.94
2023-01-21T22:36:21.134Z,103124.16
2023-01-21T22:38:48.044Z,103127.03
2023-01-21T22:41:16.727Z,103121.59
2023-01-21T22:43:48.642Z,103117.34
2023-01-21T22:46:17.650Z,103111.25
2023-01-21T22:48:47.260Z,103119.44
2023-01-21T22:51:17.070Z,103114.31
2023-01-21T22:53:43.998Z,103104.22
2023-01-21T22:56:14.953Z,103105.44
2023-01-21T22:58:41.681Z,103105.50
2023-01-21T23:01:09.091Z,103101.47
2023-01-21T23:03:37.277Z,103111.44
2023-01-21T23:06:06.347Z,103105.41
2023-01-21T23:08:33.224Z,103105.63
2023-01-21T23:11:04.372Z,103094.84
2023-01-21T23:13:32.025Z,103098.47
2023-01-21T23:15:58.955Z,103097.78
2023-01-21T23:18:27.886Z,103102.47
2023-01-21T23:20:54.950Z,103085.28
2023-01-21T23:23:21.357Z,103099.56
2023-01-21T23:25:48.117Z,103093.16
2023-01-21T23:28:14.763Z,103091.31
2023-01-21T23:30:41.637Z,103084.72
2023-01-21T23:33:08.261Z,103084.72
2023-01-21T23:35:35.455Z,103093.53
2023-01-21T23:38:02.690Z,103087.78
2023-01-21T23:40:29.386Z,103082.53
2023-01-21T23:42:55.920Z,103066.81
2023-01-21T23:45:22.466Z,103065.03
2023-01-21T23:47:49.113Z,103069.63
2023-01-21T23:50:16.151Z,103069.84
2023-01-21T23:52:43.009Z,103065.75
2023-01-21T23:55:10.355Z,103058.69
2023-01-21T23:57:36.968Z,103074.97
